createdAt,value
2023-02-22T00:00:56.321Z,8.80
2023-02-22T00:03:27.799Z,8.80
2023-02-22T00:05:59.668Z,8.80
2023-02-22T00:08:30.591Z,8.80
2023-02-22T00:10:58.947Z,8.80
2023-02-22T00:13:29.271Z,8.80
2023-02-22T00:15:57.917Z,8.90
2023-02-22T00:18:27.964Z,8.80
2023-02-22T00:20:59.905Z,8.80
2023-02-22T00:23:29.738Z,8.80
2023-02-22T00:25:58.904Z,8.80
2023-02-22T00:28:27.351Z,8.80
2023-02-22T00:30:55.795Z,8.70
2023-02-22T00:33:24.049Z,8.60
2023-02-22T00:35:52.280Z,8.60
2023-02-22T00:38:21.961Z,8.60
2023-02-22T00:40:50.273Z,8.60
2023-02-22T00:43:18.528Z,8.50
2023-02-22T00:45:47.382Z,8.50
2023-02-22T00:48:15.896Z,8.40
2023-02-22T00:50:44.155Z,8.40
2023-02-22T00:53:12.639Z,8.40
2023-02-22T00:55:42.253Z,8.40
2023-02-22T00:58:10.530Z,8.40
2023-02-22T01:00:40.249Z,8.30
2023-02-22T01:03:10.530Z,8.30
2023-02-22T01:05:39.231Z,8.30
2023-02-22T01:08:08.701Z,8.30
2023-02-22T01:10:37.487Z,8.30
2023-02-22T01:13:09.150Z,8.20
2023-02-22T01:15:39.233Z,8.20
2023-02-22T01:18:07.741Z,8.20
2023-02-22T01:20:35.988Z,8.20
2023-02-22T01:23:06.582Z,8.20
2023-02-22T01:25:35.283Z,8.10
2023-02-22T01:28:04.393Z,8.10
2023-02-22T01:30:37.689Z,8.10
2023-02-22T01:33:08.362Z,8.10
2023-02-22T01:35:40.797Z,8.10
2023-02-22T01:38:09.569Z,8.10
2023-02-22T01:40:39.253Z,8.10
2023-02-22T01:43:21.609Z,8.10
2023-02-22T01:45:57.373Z,8.10
2023-02-22T01:48:30.927Z,8.10
2023-02-22T01:51:02.270Z,8.00
2023-02-22T01:53:33.638Z,8.00
2023-02-22T01:56:01.942Z,7.90
2023-02-22T01:58:30.600Z,7.70
2023-02-22T02:01:01.117Z,7.60
2023-02-22T02:03:33.161Z,7.50
2023-02-22T02:06:03.901Z,7.40
2023-02-22T02:08:37.751Z,7.40
2023-02-22T02:11:09.029Z,7.40
2023-02-22T02:13:37.916Z,7.40
2023-02-22T02:16:07.940Z,7.30
2023-02-22T02:18:36.239Z,7.30
2023-02-22T02:21:45.278Z,7.20
2023-02-22T02:25:05.179Z,7.20
2023-02-22T02:27:42.233Z,7.10
2023-02-22T02:30:53.649Z,7.00
2023-02-22T02:33:24.273Z,7.00
2023-02-22T02:35:57.539Z,6.90
2023-02-22T02:38:33.490Z,6.90
2023-02-22T02:41:08.648Z,6.80
2023-02-22T02:43:41.453Z,6.80
2023-02-22T02:46:12.268Z,6.80
2023-02-22T02:48:45.001Z,6.80
2023-02-22T02:51:14.324Z,6.80
2023-02-22T02:53:45.466Z,6.80
2023-02-22T02:56:13.749Z,6.80
2023-02-22T02:58:49.075Z,6.80
2023-02-22T03:01:23.780Z,6.90
2023-02-22T03:04:22.454Z,6.80
2023-02-22T03:07:29.711Z,6.80
2023-02-22T03:10:09.650Z,6.80
2023-02-22T03:12:45.381Z,6.80
2023-02-22T03:15:22.940Z,6.90
2023-02-22T03:17:55.303Z,6.80
2023-02-22T03:20:31.828Z,6.70
2023-02-22T03:23:04.882Z,6.70
2023-02-22T03:25:35.740Z,6.60
2023-02-22T03:28:07.260Z,6.60
2023-02-22T03:30:38.112Z,6.60
2023-02-22T03:33:10.616Z,6.60
2023-02-22T03:35:43.067Z,6.70
2023-02-22T03:38:12.980Z,6.70
2023-02-22T03:40:44.423Z,6.70
2023-02-22T03:43:15.613Z,6.80
2023-02-22T03:45:44.197Z,6.80
2023-02-22T03:48:17.690Z,6.70
2023-02-22T03:50:48.101Z,6.80
2023-02-22T03:53:18.487Z,6.80
2023-02-22T03:55:47.366Z,6.90
2023-02-22T03:58:15.658Z,6.90
2023-02-22T04:00:44.648Z,6.90
2023-02-22T04:03:13.106Z,7.00
2023-02-22T04:05:41.413Z,7.00
2023-02-22T04:08:11.053Z,7.00
2023-02-22T04:10:39.341Z,7.10
2023-02-22T04:13:07.677Z,7.10
2023-02-22T04:15:35.954Z,7.00
2023-02-22T04:18:04.325Z,7.00
2023-02-22T04:20:32.646Z,7.00
2023-02-22T04:23:00.969Z,7.00
2023-02-22T04:25:30.668Z,7.00
2023-02-22T04:27:58.970Z,7.00
2023-02-22T04:30:28.275Z,6.90
2023-02-22T04:32:56.649Z,6.90
2023-02-22T04:35:24.859Z,7.00
2023-02-22T04:37:53.078Z,6.90
2023-02-22T04:40:23.097Z,6.80
2023-02-22T04:42:52.712Z,6.80
2023-02-22T04:45:21.114Z,6.70
2023-02-22T04:47:49.449Z,6.70
2023-02-22T04:50:17.913Z,6.70
2023-02-22T04:52:47.940Z,6.70
2023-02-22T04:55:16.579Z,6.70
2023-02-22T04:57:44.842Z,6.70
2023-02-22T05:00:18.465Z,6.80
2023-02-22T05:02:46.707Z,6.80
2023-02-22T05:05:16.030Z,6.90
2023-02-22T05:07:45.045Z,6.90
2023-02-22T05:10:13.577Z,6.90
2023-02-22T05:12:41.923Z,7.00
2023-02-22T05:15:11.376Z,7.00
2023-02-22T05:17:41.040Z,7.00
2023-02-22T05:20:11.417Z,7.00
2023-02-22T05:22:39.690Z,7.00
2023-02-22T05:25:08.984Z,7.00
2023-02-22T05:27:37.280Z,7.00
2023-02-22T05:30:09.202Z,7.00
2023-02-22T05:32:37.645Z,7.00
2023-02-22T05:35:08.378Z,7.00
2023-02-22T05:37:37.179Z,7.00
2023-02-22T05:40:07.623Z,6.90
2023-02-22T05:42:35.842Z,6.80
2023-02-22T05:45:04.108Z,6.80
2023-02-22T05:47:32.390Z,6.70
2023-02-22T05:50:01.802Z,6.80
2023-02-22T05:52:31.413Z,6.80
2023-02-22T05:55:00.340Z,6.70
2023-02-22T05:57:28.592Z,6.60
2023-02-22T05:59:56.874Z,6.60
2023-02-22T06:02:25.218Z,6.50
2023-02-22T06:04:53.549Z,6.50
2023-02-22T06:07:22.709Z,6.50
2023-02-22T06:09:53.463Z,6.50
2023-02-22T06:12:21.716Z,6.50
2023-02-22T06:14:49.963Z,6.50
2023-02-22T06:17:20.354Z,6.60
2023-02-22T06:19:48.891Z,6.60
2023-02-22T06:22:18.360Z,6.60
2023-02-22T06:24:46.636Z,6.50
2023-02-22T06:27:16.239Z,6.60
2023-02-22T06:29:46.555Z,6.70
2023-02-22T06:32:14.884Z,6.80
2023-02-22T06:34:43.209Z,6.80
2023-02-22T06:37:11.436Z,6.60
2023-02-22T06:39:39.670Z,6.60
2023-02-22T06:42:07.973Z,6.50
2023-02-22T06:44:37.676Z,6.50
2023-02-22T06:47:06.205Z,6.60
2023-02-22T06:49:34.490Z,6.70
2023-02-22T06:52:02.790Z,6.80
2023-02-22T06:54:31.067Z,6.90
2023-02-22T06:56:59.398Z,6.90
2023-02-22T06:59:28.018Z,6.90
2023-02-22T07:01:57.624Z,7.00
2023-02-22T07:04:25.918Z,7.10
2023-02-22T07:06:54.300Z,7.10
2023-02-22T07:09:22.578Z,7.20
2023-02-22T07:11:50.892Z,7.20
2023-02-22T07:14:19.282Z,7.30
2023-02-22T07:16:47.616Z,7.30
2023-02-22T07:19:17.384Z,7.40
2023-02-22T07:21:47.925Z,7.40
2023-02-22T07:24:16.197Z,7.50
2023-02-22T07:26:44.482Z,7.50
2023-02-22T07:29:12.810Z,7.60
2023-02-22T07:31:41.116Z,7.60
2023-02-22T07:34:09.412Z,7.70
2023-02-22T07:36:39.064Z,7.70
2023-02-22T07:39:08.713Z,7.80
2023-02-22T07:41:37.101Z,7.80
2023-02-22T07:44:05.908Z,7.90
2023-02-22T07:46:34.255Z,8.00
2023-02-22T07:49:02.517Z,8.00
2023-02-22T07:51:31.051Z,8.10
2023-02-22T07:54:00.787Z,8.10
2023-02-22T07:56:29.118Z,8.00
2023-02-22T07:58:57.333Z,8.10
2023-02-22T08:01:25.823Z,8.20
2023-02-22T08:03:54.144Z,8.20
2023-02-22T08:06:25.656Z,8.30
2023-02-22T08:08:53.980Z,8.30
2023-02-22T08:11:23.614Z,8.40
2023-02-22T08:13:52.100Z,8.40
2023-02-22T08:16:20.364Z,8.50
2023-02-22T08:18:48.660Z,8.50
2023-02-22T08:21:18.026Z,8.50
2023-02-22T08:23:46.450Z,8.60
2023-02-22T08:26:18.441Z,8.60
2023-02-22T08:28:48.158Z,8.70
2023-02-22T08:31:16.724Z,8.70
2023-02-22T08:33:48.798Z,8.70
2023-02-22T08:36:18.578Z,8.70
2023-02-22T08:38:46.966Z,8.70
2023-02-22T08:41:16.193Z,8.80
2023-02-22T08:43:44.889Z,8.80
2023-02-22T08:46:14.506Z,8.90
2023-02-22T08:48:51.228Z,8.90
2023-02-22T08:51:19.545Z,9.00
2023-02-22T08:53:47.857Z,9.00
2023-02-22T08:56:16.128Z,9.10
2023-02-22T08:58:44.406Z,9.10
2023-02-22T09:01:19.294Z,9.20
2023-02-22T09:03:50.386Z,9.20
2023-02-22T09:06:18.962Z,9.30
2023-02-22T09:08:47.271Z,9.30
2023-02-22T09:11:16.125Z,9.40
2023-02-22T09:13:44.517Z,9.40
2023-02-22T09:16:14.544Z,9.40
2023-02-22T09:18:44.592Z,9.50
2023-02-22T09:21:13.436Z,9.60
2023-02-22T09:23:42.607Z,9.60
2023-02-22T09:26:11.429Z,9.70
2023-02-22T09:28:39.754Z,9.70
2023-02-22T09:31:08.153Z,9.80
2023-02-22T09:33:37.821Z,9.80
2023-02-22T09:36:07.588Z,9.80
2023-02-22T09:38:36.240Z,9.80
2023-02-22T09:41:16.779Z,9.90
2023-02-22T09:43:49.315Z,9.90
2023-02-22T09:46:28.376Z,9.90
2023-02-22T09:49:03.210Z,10.00
2023-02-22T09:51:36.685Z,10.10
2023-02-22T09:54:14.501Z,10.10
2023-02-22T09:56:42.808Z,10.20
2023-02-22T09:59:12.427Z,10.30
2023-02-22T10:01:43.441Z,10.40
2023-02-22T10:04:19.037Z,10.40
2023-02-22T10:07:06.448Z,10.50
2023-02-22T10:09:38.281Z,10.50
2023-02-22T10:12:11.096Z,10.60
2023-02-22T10:14:58.295Z,10.60
2023-02-22T10:17:31.777Z,10.70
2023-02-22T10:20:19.608Z,10.70
2023-02-22T10:23:01.290Z,10.70
2023-02-22T10:25:34.946Z,10.70
2023-02-22T10:28:04.747Z,10.70
2023-02-22T10:30:34.638Z,10.80
2023-02-22T10:33:09.679Z,10.90
2023-02-22T10:35:41.181Z,11.00
2023-02-22T10:38:16.624Z,11.00
2023-02-22T10:40:46.522Z,11.00
2023-02-22T10:43:14.984Z,11.00
2023-02-22T10:45:43.223Z,11.10
2023-02-22T10:48:15.900Z,11.10
2023-02-22T10:50:46.687Z,11.20
2023-02-22T10:53:15.783Z,11.30
2023-02-22T10:56:13.994Z,11.30
2023-02-22T10:58:48.219Z,11.30
2023-02-22T11:01:35.527Z,11.30
2023-02-22T11:04:14.031Z,11.30
2023-02-22T11:06:45.386Z,11.30
2023-02-22T11:09:15.558Z,11.30
2023-02-22T11:11:45.895Z,11.30
2023-02-22T11:14:16.245Z,11.30
2023-02-22T11:16:47.049Z,11.40
2023-02-22T11:19:20.905Z,11.40
2023-02-22T11:21:52.993Z,11.40
2023-02-22T11:24:24.075Z,11.40
2023-02-22T11:26:54.617Z,11.40
2023-02-22T11:29:27.290Z,11.50
2023-02-22T11:31:55.807Z,11.50
2023-02-22T11:34:33.528Z,11.50
2023-02-22T11:37:30.380Z,11.50
2023-02-22T11:40:17.736Z,11.50
2023-02-22T11:42:46.185Z,11.50
2023-02-22T11:45:20.856Z,11.50
2023-02-22T11:47:54.528Z,11.50
2023-02-22T11:50:30.573Z,11.50
2023-02-22T11:53:23.580Z,11.50
2023-02-22T11:56:13.915Z,11.60
2023-02-22T11:58:47.203Z,11.60
2023-02-22T12:01:25.068Z,11.60
2023-02-22T12:04:26.488Z,11.60
2023-02-22T12:07:04.091Z,11.70
2023-02-22T12:09:38.296Z,11.70
2023-02-22T12:12:14.805Z,11.70
2023-02-22T12:14:48.425Z,11.70
2023-02-22T12:17:24.515Z,11.70
2023-02-22T12:19:54.052Z,11.70
2023-02-22T12:22:25.564Z,11.70
2023-02-22T12:25:09.016Z,11.70
2023-02-22T12:27:40.611Z,11.70
2023-02-22T12:30:13.117Z,11.70
2023-02-22T12:32:42.893Z,11.70
2023-02-22T12:35:16.012Z,11.70
2023-02-22T12:38:00.582Z,11.70
2023-02-22T12:40:35.556Z,11.70
2023-02-22T12:43:07.383Z,11.70
2023-02-22T12:45:38.218Z,11.80
2023-02-22T12:48:21.606Z,11.80
2023-02-22T12:50:53.811Z,11.80
2023-02-22T12:53:26.272Z,11.80
2023-02-22T12:55:58.429Z,11.80
2023-02-22T12:58:30.526Z,11.80
2023-02-22T13:01:02.076Z,11.90
2023-02-22T13:03:36.086Z,11.90
2023-02-22T13:06:29.466Z,11.90
2023-02-22T13:09:09.709Z,11.90
2023-02-22T13:11:43.161Z,11.90
2023-02-22T13:14:25.227Z,11.90
2023-02-22T13:16:56.326Z,11.90
2023-02-22T13:19:36.716Z,11.90
2023-02-22T13:22:08.798Z,11.90
2023-02-22T13:24:44.172Z,11.90
2023-02-22T13:27:15.422Z,11.90
2023-02-22T13:29:46.287Z,11.90
2023-02-22T13:32:25.752Z,11.90
2023-02-22T13:35:16.299Z,11.80
2023-02-22T13:38:27.285Z,11.80
2023-02-22T13:41:29.871Z,11.80
2023-02-22T13:44:51.560Z,11.70
2023-02-22T13:48:13.013Z,11.70
2023-02-22T13:51:07.645Z,11.70
2023-02-22T13:53:43.864Z,11.80
2023-02-22T13:56:12.736Z,11.80
2023-02-22T13:58:52.506Z,11.90
2023-02-22T14:01:45.657Z,11.80
2023-02-22T14:04:41.438Z,11.90
2023-02-22T14:07:57.908Z,11.80
2023-02-22T14:10:50.069Z,11.80
2023-02-22T14:13:19.667Z,11.80
2023-02-22T14:16:20.602Z,11.80
2023-02-22T14:18:51.766Z,11.80
2023-02-22T14:21:20.750Z,11.80
2023-02-22T14:23:49.465Z,11.70
2023-02-22T14:26:27.008Z,11.70
2023-02-22T14:28:57.513Z,11.70
2023-02-22T14:31:36.156Z,11.70
2023-02-22T14:34:09.435Z,11.60
2023-02-22T14:36:52.204Z,11.60
2023-02-22T14:39:25.716Z,11.60
2023-02-22T14:42:01.427Z,11.50
2023-02-22T14:44:35.854Z,11.50
2023-02-22T14:47:06.570Z,11.40
2023-02-22T14:49:41.577Z,11.40
2023-02-22T14:52:19.893Z,11.30
2023-02-22T14:54:58.075Z,11.20
2023-02-22T14:57:30.374Z,11.10
2023-02-22T15:00:22.619Z,11.10
2023-02-22T15:02:52.632Z,11.10
2023-02-22T15:05:22.317Z,11.10
2023-02-22T15:07:55.531Z,11.10
2023-02-22T15:10:27.889Z,11.10
2023-02-22T15:13:08.965Z,11.10
2023-02-22T15:15:39.619Z,11.10
2023-02-22T15:18:18.896Z,11.10
2023-02-22T15:20:55.841Z,11.00
2023-02-22T15:23:26.976Z,11.00
2023-02-22T15:25:55.316Z,10.90
2023-02-22T15:28:23.733Z,10.90
2023-02-22T15:30:52.081Z,10.90
2023-02-22T15:33:24.292Z,10.80
2023-02-22T15:35:57.685Z,10.80
2023-02-22T15:38:30.011Z,10.80
2023-02-22T15:41:03.279Z,10.80
2023-02-22T15:43:32.372Z,10.80
2023-02-22T15:46:00.888Z,10.80
2023-02-22T15:48:31.585Z,10.70
2023-02-22T15:51:07.048Z,10.70
2023-02-22T15:53:43.061Z,10.60
2023-02-22T15:56:15.835Z,10.60
2023-02-22T15:58:44.425Z,10.50
2023-02-22T16:01:17.177Z,10.50
2023-02-22T16:03:48.592Z,10.50
2023-02-22T16:06:29.988Z,10.40
2023-02-22T16:08:59.794Z,10.40
2023-02-22T16:11:31.034Z,10.40
2023-02-22T16:14:01.645Z,10.40
2023-02-22T16:16:32.287Z,10.40
2023-02-22T16:19:31.333Z,10.30
2023-02-22T16:22:03.068Z,10.30
2023-02-22T16:24:32.913Z,10.30
2023-02-22T16:27:07.234Z,10.20
2023-02-22T16:29:35.651Z,10.20
2023-02-22T16:32:04.805Z,10.20
2023-02-22T16:34:33.173Z,10.10
2023-02-22T16:37:02.839Z,10.10
2023-02-22T16:39:32.346Z,10.00
2023-02-22T16:42:02.784Z,10.00
2023-02-22T16:44:30.993Z,9.90
2023-02-22T16:47:00.607Z,9.90
2023-02-22T16:49:28.922Z,9.80
2023-02-22T16:51:59.781Z,9.80
2023-02-22T16:54:34.255Z,9.80
2023-02-22T16:57:03.966Z,9.70
2023-02-22T16:59:32.530Z,9.70
2023-02-22T17:02:00.803Z,9.60
2023-02-22T17:04:29.158Z,9.50
2023-02-22T17:06:59.086Z,9.50
2023-02-22T17:09:28.889Z,9.40
2023-02-22T17:11:57.217Z,9.30
2023-02-22T17:14:34.982Z,9.30
2023-02-22T17:17:03.374Z,9.20
2023-02-22T17:19:31.646Z,9.20
2023-02-22T17:22:01.302Z,9.10
2023-02-22T17:24:30.964Z,9.00
2023-02-22T17:26:59.812Z,9.00
2023-02-22T17:29:29.078Z,8.90
2023-02-22T17:31:57.564Z,8.90
2023-02-22T17:34:26.164Z,8.90
2023-02-22T17:36:54.379Z,8.80
2023-02-22T17:39:22.727Z,8.80
2023-02-22T17:41:57.559Z,8.70
2023-02-22T17:44:26.322Z,8.70
2023-02-22T17:46:54.740Z,8.70
2023-02-22T17:49:23.062Z,8.60
2023-02-22T17:51:53.150Z,8.60
2023-02-22T17:54:21.487Z,8.60
2023-02-22T17:56:51.215Z,8.50
2023-02-22T17:59:19.860Z,8.50
2023-02-22T18:01:48.915Z,8.40
2023-02-22T18:04:17.182Z,8.40
2023-02-22T18:06:46.286Z,8.40
2023-02-22T18:09:17.726Z,8.30
2023-02-22T18:11:46.069Z,8.30
2023-02-22T18:14:15.728Z,8.30
2023-02-22T18:16:46.884Z,8.20
2023-02-22T18:19:20.363Z,8.20
2023-02-22T18:21:49.736Z,8.20
2023-02-22T18:24:18.495Z,8.10
2023-02-22T18:26:47.559Z,8.10
2023-02-22T18:29:17.315Z,8.10
2023-02-22T18:31:46.422Z,8.10
2023-02-22T18:34:15.792Z,8.10
2023-02-22T18:36:44.089Z,8.00
2023-02-22T18:39:12.960Z,8.00
2023-02-22T18:41:41.394Z,8.00
2023-02-22T18:44:11.072Z,7.90
2023-02-22T18:46:40.818Z,7.90
2023-02-22T18:49:11.579Z,7.80
2023-02-22T18:51:40.074Z,7.80
2023-02-22T18:54:08.445Z,7.80
2023-02-22T18:56:36.829Z,7.60
2023-02-22T18:59:05.368Z,7.70
2023-02-22T19:01:38.651Z,7.60
2023-02-22T19:04:11.971Z,7.60
2023-02-22T19:06:40.372Z,7.50
2023-02-22T19:09:09.325Z,7.50
2023-02-22T19:11:37.872Z,7.40
2023-02-22T19:14:06.535Z,7.40
2023-02-22T19:16:34.920Z,7.40
2023-02-22T19:19:03.920Z,7.40
2023-02-22T19:21:33.897Z,7.40
2023-02-22T19:24:02.191Z,7.30
2023-02-22T19:26:30.789Z,7.30
2023-02-22T19:28:59.717Z,7.30
2023-02-22T19:31:31.034Z,7.30
2023-02-22T19:34:01.678Z,7.30
2023-02-22T19:36:30.566Z,7.20
2023-02-22T19:39:01.690Z,7.20
2023-02-22T19:41:30.228Z,7.20
2023-02-22T19:43:58.820Z,7.20
2023-02-22T19:46:27.078Z,7.20
2023-02-22T19:48:56.052Z,7.20
2023-02-22T19:51:26.165Z,7.10
2023-02-22T19:53:54.527Z,7.10
2023-02-22T19:56:27.224Z,7.10
2023-02-22T19:58:56.655Z,7.10
2023-02-22T20:01:26.168Z,7.10
2023-02-22T20:03:55.536Z,7.10
2023-02-22T20:06:26.475Z,7.00
2023-02-22T20:08:54.875Z,7.00
2023-02-22T20:11:24.940Z,7.00
2023-02-22T20:13:53.397Z,7.00
2023-02-22T20:16:21.687Z,7.00
2023-02-22T20:18:50.120Z,6.90
2023-02-22T20:21:20.766Z,6.90
2023-02-22T20:23:49.253Z,6.90
2023-02-22T20:26:19.515Z,6.90
2023-02-22T20:28:49.553Z,6.90
2023-02-22T20:31:18.571Z,6.90
2023-02-22T20:33:48.495Z,6.90
2023-02-22T20:36:17.912Z,6.90
2023-02-22T20:38:46.980Z,6.90
2023-02-22T20:41:16.932Z,6.80
2023-02-22T20:43:46.350Z,6.80
2023-02-22T20:46:16.158Z,6.80
2023-02-22T20:48:44.441Z,6.80
2023-02-22T20:51:14.055Z,6.80
2023-02-22T20:53:44.867Z,6.70
2023-02-22T20:56:14.460Z,6.80
2023-02-22T20:58:42.933Z,6.70
2023-02-22T21:01:13.771Z,6.70
2023-02-22T21:03:43.598Z,6.70
2023-02-22T21:06:14.984Z,6.70
2023-02-22T21:08:43.968Z,6.70
2023-02-22T21:11:12.593Z,6.60
2023-02-22T21:13:40.933Z,6.60
2023-02-22T21:16:10.304Z,6.60
2023-02-22T21:18:38.682Z,6.60
2023-02-22T21:21:10.332Z,6.60
2023-02-22T21:23:38.745Z,6.60
2023-02-22T21:26:07.378Z,6.60
2023-02-22T21:28:50.519Z,6.60
2023-02-22T21:31:20.500Z,6.60
2023-02-22T21:33:49.924Z,6.50
2023-02-22T21:36:19.823Z,6.50
2023-02-22T21:38:49.346Z,6.50
2023-02-22T21:41:18.376Z,6.50
2023-02-22T21:43:50.034Z,6.40
2023-02-22T21:46:18.444Z,6.40
2023-02-22T21:48:48.797Z,6.40
2023-02-22T21:51:20.573Z,6.40
2023-02-22T21:53:52.047Z,6.30
2023-02-22T21:56:27.535Z,6.30
2023-02-22T21:58:59.030Z,6.40
2023-02-22T22:01:28.475Z,6.30
2023-02-22T22:03:59.522Z,6.30
2023-02-22T22:06:29.623Z,6.30
2023-02-22T22:08:59.735Z,6.30
2023-02-22T22:11:30.505Z,6.30
2023-02-22T22:13:59.733Z,6.30
2023-02-22T22:16:30.183Z,6.30
2023-02-22T22:18:58.726Z,6.30
2023-02-22T22:21:28.632Z,6.20
2023-02-22T22:23:57.390Z,6.20
2023-02-22T22:26:26.157Z,6.20
2023-02-22T22:28:56.086Z,6.20
2023-02-22T22:31:25.893Z,6.20
2023-02-22T22:33:54.641Z,6.10
2023-02-22T22:36:23.206Z,6.10
2023-02-22T22:38:53.365Z,6.10
2023-02-22T22:41:21.906Z,6.10
2023-02-22T22:43:52.438Z,6.10
2023-02-22T22:46:21.531Z,6.10
2023-02-22T22:48:49.833Z,6.10
2023-02-22T22:51:20.658Z,6.00
2023-02-22T22:53:49.956Z,6.00
2023-02-22T22:56:21.167Z,6.00
2023-02-22T22:58:50.784Z,6.00
2023-02-22T23:01:26.894Z,5.90
2023-02-22T23:03:56.521Z,5.90
2023-02-22T23:06:25.961Z,5.90
2023-02-22T23:08:59.967Z,5.80
2023-02-22T23:11:33.596Z,5.80
2023-02-22T23:14:12.085Z,5.80
2023-02-22T23:16:40.856Z,5.80
2023-02-22T23:19:09.346Z,5.80
2023-02-22T23:21:38.343Z,5.70
2023-02-22T23:24:07.340Z,5.70
2023-02-22T23:26:36.977Z,5.70
2023-02-22T23:29:05.572Z,5.70
2023-02-22T23:31:33.880Z,5.60
2023-02-22T23:34:10.934Z,5.60
2023-02-22T23:36:39.462Z,5.60
2023-02-22T23:39:07.813Z,5.60
2023-02-22T23:41:37.471Z,5.60
2023-02-22T23:44:08.328Z,5.60
2023-02-22T23:46:36.822Z,5.60
2023-02-22T23:49:06.299Z,5.60
2023-02-22T23:51:39.379Z,5.60
2023-02-22T23:54:08.080Z,5.50
2023-02-22T23:56:40.025Z,5.50
2023-02-22T23:59:12.485Z,5.50
